Flight Track Log - Related Links

Times and Time Zones

All times are in EDT time to prevent confusion due to time zone crossing. See the N315CJ flight status page for this flight to view local times or setup timezone preferences in your user account.

Time Position Orientation Groundspeed Altitude Reporting Facility
EDT Latitude Longitude Course Direction KTS MPH feet Rate Location/Type
Tue 12:38:37 PM 26.6846 -80.1436 272° West 172 198 2,400  Level FlightAware ADS-B (RJTF)
Tue 12:38:52 PM 26.6854 -80.1636 273° West 185 213 3,000 2,600 Climbing FlightAware ADS-B (RJTF)
Tue 12:39:07 PM 26.6859 -80.1744 273° West 193 222 3,700 2,800 Climbing FlightAware ADS-B (RJTF)
Tue 12:39:22 PM 26.6868 -80.1920 273° West 198 228 4,400 2,710 Climbing FlightAware ADS-B (RJTF)
Tue 12:39:38 PM 26.6882 -80.2061 286° West 209 241 5,100 2,600 Climbing FlightAware ADS-B (RJTF)
Tue 12:39:52 PM 26.6939 -80.2221 301° West 222 255 5,700 2,690 Climbing FlightAware ADS-B (RJTF)
Tue 12:40:07 PM 26.7049 -80.2370 318° Northwest 235 270 6,400 2,600 Climbing FlightAware ADS-B (RJTF)
Tue 12:40:22 PM 26.7166 -80.2460 331° Northwest 236 272 7,000 2,600 Climbing FlightAware ADS-B (RJTF)
Tue 12:40:37 PM 26.7333 -80.2561 332° Northwest 228 262 7,700 2,903 Climbing FlightAware ADS-B (RJTF)
Tue 12:40:53 PM 26.7447 -80.2629 332° Northwest 231 266 8,500 2,800 Climbing FlightAware ADS-B (RJTF)
Tue 12:41:22 PM 26.7746 -80.2805 333° Northwest 240 276 9,800 2,746 Climbing FlightAware ADS-B (RJTF)
Tue 12:41:52 PM 26.8066 -80.2991 332° Northwest 242 278 11,200 2,754 Climbing FlightAware ADS-B (RJTF)
Tue 12:42:23 PM 26.8333 -80.3146 332° Northwest 239 275 12,600 2,720 Climbing FlightAware ADS-B (RJTF)
Tue 12:43:07 PM 26.8798 -80.3399 339° North 244 281 14,600 2,432 Climbing FlightAware ADS-B (RJTF)
Tue 12:43:37 PM 26.9048 -80.3511 337° Northwest 258 297 15,600 2,100 Climbing FlightAware ADS-B (RJTF)
Tue 12:44:07 PM 26.9462 -80.3704 337° Northwest 262 302 16,700 2,262 Climbing FlightAware ADS-B (RJTF)
Tue 12:44:38 PM 26.9771 -80.3848 337° Northwest 262 302 17,900 1,132 Climbing FlightAware ADS-B (RJTF)
Tue 12:50:02 PM 27.4059 -80.6489 332° Northwest 369 425 23,400 1,153 Climbing FlightAware ADS-B
Tue 12:50:58 PM 27.4892 -80.6987 332° Northwest 325 374 25,200 1,705 Climbing FlightAware ADS-B
Tue 12:51:37 PM 27.5391 -80.7286 332° Northwest 315 362 26,100 1,373 Climbing FlightAware ADS-B
Tue 12:52:21 PM 27.5962 -80.7627 332° Northwest 316 364 27,100 1,105 Climbing FlightAware ADS-B
Tue 12:52:53 PM 27.6303 -80.7831 332° Northwest 322 371 27,500 1,083 Climbing FlightAware ADS-B
Tue 12:53:33 PM 27.6920 -80.8199 332° Northwest 325 374 28,400 1,213 Climbing FlightAware ADS-B
Tue 12:54:22 PM 27.7571 -80.8591 332° Northwest 325 374 29,300 1,024 Climbing FlightAware ADS-B
Tue 12:54:55 PM 27.7947 -80.8816 332° Northwest 326 375 29,800 1,151 Climbing FlightAware ADS-B
Tue 12:55:35 PM 27.8541 -80.9173 332° Northwest 329 379 30,700 1,200 Climbing FlightAware ADS-B
Tue 12:56:05 PM 27.8947 -80.9418 332° Northwest 332 382 31,200 943 Climbing FlightAware ADS-B
Tue 12:56:45 PM 27.9475 -80.9736 332° Northwest 340 391 31,800 845 Climbing FlightAware ADS-B
Tue 12:57:16 PM 27.9938 -80.9952 346° North 360 414 32,200 844 Climbing FlightAware ADS-B
Tue 12:57:49 PM 28.0494 -81.0079 349° North 367 422 32,700 794 Climbing FlightAware ADS-B (KSFB)
Tue 12:58:24 PM 28.1079 -81.0205 349° North 371 427 33,100 738 Climbing FlightAware ADS-B (KSFB)
Tue 12:58:54 PM 28.1599 -81.0317 349° North 375 432 33,500 787 Climbing FlightAware ADS-B (KSFB)
Tue 12:59:25 PM 28.2126 -81.0431 349° North 377 434 33,900 885 Climbing FlightAware ADS-B
Tue 12:59:55 PM 28.2591 -81.0531 349° North 377 434 34,400 968 Climbing FlightAware ADS-B
Tue 01:00:27 PM 28.3164 -81.0654 349° North 376 433 34,900 968 Climbing FlightAware ADS-B
Tue 01:00:57 PM 28.3714 -81.0773 349° North 377 434 35,400 1,029 Climbing FlightAware ADS-B
Tue 01:01:37 PM 28.4367 -81.0914 349° North 375 432 36,100 1,014 Climbing FlightAware ADS-B
Tue 01:02:08 PM 28.4822 -81.1013 349° North 373 429 36,600 984 Climbing FlightAware ADS-B
Tue 01:02:38 PM 28.5417 -81.1153 342° North 362 417 37,100 960 Climbing FlightAware ADS-B
Tue 01:02:58 PM 28.5713 -81.1317 327° Northwest 342 394 37,400 682 Climbing FlightAware ADS-B
Tue 01:03:22 PM 28.5972 -81.1594 309° West 322 371 37,600 778 Climbing FlightAware ADS-B (KSFB)
Tue 01:03:52 PM 28.6212 -81.1940 308° West 324 373 38,100 882 Climbing FlightAware ADS-B (KSFB)
Tue 01:04:30 PM 28.6687 -81.2464 326° Northwest 354 407 38,600 871 Climbing FlightAware ADS-B
Tue 01:04:54 PM 28.7034 -81.2667 338° Northwest 371 427 39,000 1,059 Climbing FlightAware ADS-B (KSFB)
Tue 01:05:21 PM 28.7489 -81.2810 350° North 386 444 39,500 1,263 Climbing FlightAware ADS-B (KSFB)
Tue 01:05:51 PM 28.8026 -81.2891 353° North 381 438 40,200 1,258 Climbing FlightAware ADS-B (KSFB)
Tue 01:06:23 PM 28.8587 -81.2973 353° North 377 434 40,800 716 Climbing FlightAware ADS-B (KSFB)
Tue 01:06:58 PM 28.9201 -81.3062 353° North 384 442 41,000 182 Climbing FlightAware ADS-B
Tue 01:07:29 PM 28.9750 -81.3140 353° North 397 457 41,000  Level FlightAware ADS-B
Tue 01:08:00 PM 29.0324 -81.3222 353° North 408 470 41,000  Level FlightAware ADS-B
Tue 01:08:46 PM 29.1193 -81.3345 353° North 419 482 41,000  Level FlightAware ADS-B
Tue 01:09:31 PM 29.2055 -81.3467 353° North 427 491 41,000 160 Level FlightAware ADS-B
Tue 01:10:01 PM 29.2667 -81.3554 353° North 425 489 41,200 750 Climbing FlightAware ADS-B
Tue 01:10:43 PM 29.3463 -81.3667 353° North 412 474 41,900 940 Climbing FlightAware ADS-B
Tue 01:11:24 PM 29.4177 -81.3770 353° North 403 464 42,500 900 Climbing FlightAware ADS-B
Tue 01:12:03 PM 29.4971 -81.3884 353° North 398 458 43,100 867 Climbing FlightAware ADS-B
Tue 01:12:54 PM 29.5828 -81.4007 353° North 392 451 43,800 690 Climbing FlightAware ADS-B
Tue 01:13:30 PM 29.6461 -81.4098 353° North 393 452 44,100 500 Climbing FlightAware ADS-B
Tue 01:14:06 PM 29.7172 -81.4200 353° North 394 453 44,400 514 Climbing FlightAware ADS-B
Tue 01:14:40 PM 29.7783 -81.4287 353° North 395 455 44,700 507 Climbing FlightAware ADS-B
Tue 01:15:17 PM 29.8477 -81.4386 353° North 394 453 45,000 220 Climbing FlightAware ADS-B
Tue 01:16:02 PM 29.9277 -81.4502 353° North 403 464 45,000  Level FlightAware ADS-B
Tue 01:16:33 PM 29.9787 -81.4576 353° North 408 470 45,000  Level FlightAware ADS-B
Tue 01:17:03 PM 30.0206 -81.4653 353° North 392 451 45,000  Level Jacksonville Center
Tue 01:18:02 PM 30.1375 -81.4828 353° North 398 458 45,000  Level Jacksonville Center
Tue 01:19:03 PM 30.2694 -81.5000 354° North 420 483 45,000  Level Jacksonville Center
Tue 01:20:03 PM 30.3906 -81.5006 360° North 426 490 45,000  Level Jacksonville Center
Tue 01:21:03 PM 30.5131 -81.4531 18° North 444 511 45,000  Level Jacksonville Center
Tue 01:22:02 PM 30.6356 -81.3981 21° North 449 517 45,000  Level Jacksonville Center
Tue 01:23:02 PM 30.7561 -81.3406 22° Northeast 459 528 45,000  Level Jacksonville Center
Tue 01:24:02 PM 30.8764 -81.2831 22° Northeast 464 534 45,000  Level Jacksonville Center
Tue 01:25:02 PM 30.9969 -81.2275 22° Northeast 470 541 45,000  Level Jacksonville Center
Tue 01:27:03 PM 31.2333 -81.1117 23° Northeast 452 520 45,000  Level Jacksonville Center
Tue 01:28:02 PM 31.3453 -81.0561 23° Northeast 445 512 45,000  Level Jacksonville Center
Tue 01:29:02 PM 31.4633 -81.0000 22° Northeast 445 512 45,000  Level Jacksonville Center
Tue 01:30:02 PM 31.5711 -80.9492 22° Northeast 451 519 45,000  Level Jacksonville Center
Tue 01:32:02 PM 31.8075 -80.8317 23° Northeast 456 525 45,000  Level Jacksonville Center
Tue 01:33:02 PM 31.9400 -80.7700 22° Northeast 456 525 45,000  Level Jacksonville Center
Tue 01:35:03 PM 32.1781 -80.6517 23° Northeast 461 531 45,000  Level Jacksonville Center
Tue 01:36:02 PM 32.2981 -80.5947 22° Northeast 461 531 45,000  Level Jacksonville Center
Tue 01:37:02 PM 32.4161 -80.5350 23° Northeast 450 518 45,000  Level Jacksonville Center
Tue 01:38:02 PM 32.5339 -80.4778 22° Northeast 450 518 45,000  Level Jacksonville Center
Tue 01:39:02 PM 32.6517 -80.4178 23° Northeast 450 518 45,000  Level Jacksonville Center
Tue 01:40:02 PM 32.7694 -80.3603 22° Northeast 450 518 45,000  Level Jacksonville Center
Tue 01:41:03 PM 32.8872 -80.3000 23° Northeast 450 518 45,000  Level Jacksonville Center
Tue 01:42:03 PM 32.9947 -80.2425 24° Northeast 461 531 45,000  Level Jacksonville Center
Tue 01:44:02 PM 33.2447 -80.1208 22° Northeast 476 548 45,000  Level Jacksonville Center
Tue 01:45:02 PM 33.3603 -80.0625 23° Northeast 470 541 45,000  Level Jacksonville Center
Tue 01:47:02 PM 33.5994 -79.9403 23° Northeast 464 534 45,000  Level Jacksonville Center
Tue 01:48:02 PM 33.7211 -79.8786 23° Northeast 464 534 45,000  Level Jacksonville Center
Tue 01:49:02 PM 33.8406 -79.8172 23° Northeast 470 541 45,000  Level Jacksonville Center
Tue 01:50:02 PM 33.9622 -79.7553 23° Northeast 470 541 45,000  Level Jacksonville Center
Tue 01:51:02 PM 34.0794 -79.6908 24° Northeast 470 541 45,000  Level Jacksonville Center
Tue 01:52:02 PM 34.2033 -79.6311 22° Northeast 470 541 45,000  Level Jacksonville Center
Tue 01:54:09 PM 34.4522 -79.5008 23° Northeast 453 521 45,000  Level Washington Center
Tue 01:56:08 PM 34.6942 -79.3733 23° Northeast 465 535 45,000  Level Washington Center
Tue 01:57:08 PM 34.8150 -79.3108 23° Northeast 465 535 45,000 -596 Level Washington Center
Tue 02:03:11 PM 35.5672 -78.9103 23° Northeast 500 575 40,800 -708 Descending FlightAware ADS-B (DTNZ)
Tue 02:03:55 PM 35.6565 -78.8623 23° Northeast 501 577 40,200 -1,084 Descending FlightAware ADS-B (DTNZ)
Tue 02:04:34 PM 35.7558 -78.8086 23° Northeast 503 579 39,300 -1,769 Descending FlightAware ADS-B (DTNZ)
Tue 02:05:13 PM 35.8384 -78.7641 23° Northeast 502 578 37,900 -2,250 Descending FlightAware ADS-B (DTNZ)
Tue 02:06:10 PM 35.9486 -78.7094 23° Northeast 494 568 35,700 -2,053 Descending Washington Center
Tue 02:07:07 PM 36.0797 -78.6375 24° Northeast 494 568 34,000 -2,292 Descending Washington Center
Tue 02:09:08 PM 36.2953 -78.4447 36° Northeast 481 554 28,900 -2,308 Descending Washington Center
Tue 02:10:09 PM 36.3839 -78.3164 49° Northeast 474 545 27,000 -958 Descending Washington Center
Tue 02:11:07 PM 36.5081 -78.2639 19° North 466 536 27,000  Level Washington Center
Tue 02:12:08 PM 36.6367 -78.2114 18° North 460 529 27,000  Level Washington Center
Tue 02:13:08 PM 36.7528 -78.1478 24° Northeast 478 550 27,000  Level Washington Center
Tue 02:14:10 PM 36.8756 -78.0586 30° Northeast 491 565 27,000 -807 Level Washington Center
Tue 02:15:07 PM 37.0006 -77.9664 30° Northeast 510 587 25,400 -1,011 Descending Washington Center
Tue 02:17:08 PM 37.2311 -77.7933 31° Northeast 489 563 24,000 -347 Descending Washington Center
Tue 02:19:09 PM 37.4594 -77.6169 32° Northeast 478 550 24,000 -268 Level Washington Center
Tue 02:20:07 PM 37.5786 -77.6017 North 445 512 23,200 -504 Descending Washington Center
Tue 02:21:08 PM 37.6911 -77.6153 355° North 417 480 23,000 -198 Descending Washington Center
Tue 02:22:08 PM 37.8017 -77.6181 359° North 401 461 22,800 -2,571 Descending Washington Center
Tue 02:23:56 PM 38.0167 -77.5167 20° North 385 443 15,800 -3,643 Descending Potomac TRACON
Tue 02:24:56 PM 38.1000 -77.4833 17° North 346 398 12,600 -2,924 Descending Potomac TRACON
Tue 02:25:55 PM 38.1833 -77.4333 25° Northeast 319 367 10,000 -1,138 Descending Potomac TRACON
Tue 02:31:21 PM 38.6081 -77.4427 North 250 288 5,300 -897 Descending FlightAware ADS-B (KDAA)
Tue 02:31:36 PM 38.6260 -77.4424 North 249 287 4,900 -1,355 Descending FlightAware ADS-B (KDAA)
Tue 02:31:52 PM 38.6450 -77.4420 North 252 290 4,600 -1,161 Descending FlightAware ADS-B (KDAA)
Tue 02:32:07 PM 38.6612 -77.4405 North 250 288 4,300 -968 Descending FlightAware ADS-B (KDAA)
Tue 02:32:23 PM 38.6798 -77.4393 North 248 285 4,100 -1,000 Descending FlightAware ADS-B (KDAA)
Tue 02:32:37 PM 38.6970 -77.4389 North 248 285 3,800 -1,200 Descending FlightAware ADS-B (KDAA)
Tue 02:32:53 PM 38.7147 -77.4389 North 250 288 3,500 -1,200 Descending FlightAware ADS-B (KDAA)
Tue 02:32:57 PM 38.7202 -77.4391 359° North 246 283 3,400 -1,500 Descending FlightAware ADS-B (KDAA)
Tue 02:33:01 PM 38.7225 -77.4392 North 244 281 3,300 -300 Descending FlightAware ADS-B (KDAA)
Tue 02:33:17 PM 38.7395 -77.4393 North 217 250 3,300  Level FlightAware ADS-B (KDAA)
Tue 02:33:37 PM 38.7603 -77.4395 North 196 226 3,300  Level FlightAware ADS-B (KDAA)
Tue 02:33:57 PM 38.7764 -77.4390 North 166 191 3,300 -167 Level FlightAware ADS-B (KDAA)
Tue 02:34:13 PM 38.7870 -77.4388 North 153 176 3,200 -1,000 Descending FlightAware ADS-B (KDAA)
Tue 02:34:27 PM 38.7975 -77.4383 North 160 184 2,800 -1,448 Descending FlightAware ADS-B (KDAA)
Tue 02:34:42 PM 38.8101 -77.4381 North 165 190 2,500 -800 Descending FlightAware ADS-B (KDAA)
Tue 02:34:57 PM 38.8215 -77.4380 North 160 184 2,400 -343 Descending FlightAware ADS-B (KDAA)
Tue 02:35:17 PM 38.8359 -77.4379 North 150 173 2,300 -300 Descending FlightAware ADS-B (KDAA)
Tue 02:35:37 PM 38.8493 -77.4375 North 145 167 2,200 -514 Descending FlightAware ADS-B (KDAA)
Tue 02:35:52 PM 38.8591 -77.4375 North 140 161 2,000 -857 Descending FlightAware ADS-B (KDAA)
Tue 02:36:05 PM 38.8675 -77.4373 North 136 157 1,800 -800 Descending FlightAware ADS-B (KDAA)
Tue 02:36:22 PM 38.8778 -77.4371 North 131 151 1,600 -652 Descending FlightAware ADS-B (KDAA)
Tue 02:36:51 PM 38.8947 -77.4368 North 127 146 1,300 -1,024 Descending FlightAware ADS-B (KDAA)
Tue 02:37:03 PM 38.9000 -77.4333 197° South 124 143 900 -2,000 Descending Potomac TRACON
Tue 02:39:00 PM 38.9474 -77.4599 North  Level Estimated
Tue 02:42:00 PM 38.9474 -77.4599 197° South  Level Estimated
Tue 02:46:00 PM 38.9474 -77.4599 195° South  Level Estimated

Login

Don't have an account? Register now (free) for customized features, flight alerts, and more!